sensor_id;sensor_type;location;lat;lon;timestamp;temperature;humidity
70534;SHT31;58088;51.186;17.130;2023-04-15T00:01:34;12.97;77.00
70534;SHT31;58088;51.186;17.130;2023-04-15T00:04:01;12.98;76.86
70534;SHT31;58088;51.186;17.130;2023-04-15T00:06:27;12.99;76.89
70534;SHT31;58088;51.186;17.130;2023-04-15T00:08:53;12.99;76.82
70534;SHT31;58088;51.186;17.130;2023-04-15T00:11:20;12.97;76.82
70534;SHT31;58088;51.186;17.130;2023-04-15T00:13:46;12.95;76.85
70534;SHT31;58088;51.186;17.130;2023-04-15T00:16:13;12.95;76.82
70534;SHT31;58088;51.186;17.130;2023-04-15T00:18:39;12.94;76.81
70534;SHT31;58088;51.186;17.130;2023-04-15T00:21:05;12.94;76.74
70534;SHT31;58088;51.186;17.130;2023-04-15T00:23:31;12.95;76.63
70534;SHT31;58088;51.186;17.130;2023-04-15T00:25:58;12.92;76.70
70534;SHT31;58088;51.186;17.130;2023-04-15T00:28:24;12.91;76.60
70534;SHT31;58088;51.186;17.130;2023-04-15T00:30:50;12.91;76.51
70534;SHT31;58088;51.186;17.130;2023-04-15T00:33:16;12.91;76.48
70534;SHT31;58088;51.186;17.130;2023-04-15T00:35:43;12.92;76.38
70534;SHT31;58088;51.186;17.130;2023-04-15T00:38:10;12.92;76.27
70534;SHT31;58088;51.186;17.130;2023-04-15T00:40:36;12.93;76.16
70534;SHT31;58088;51.186;17.130;2023-04-15T00:43:03;12.91;76.09
70534;SHT31;58088;51.186;17.130;2023-04-15T00:45:30;12.88;76.04
70534;SHT31;58088;51.186;17.130;2023-04-15T00:47:56;12.86;76.00
70534;SHT31;58088;51.186;17.130;2023-04-15T00:50:24;12.85;75.99
70534;SHT31;58088;51.186;17.130;2023-04-15T00:52:50;12.84;75.95
70534;SHT31;58088;51.186;17.130;2023-04-15T00:55:16;12.80;75.99
70534;SHT31;58088;51.186;17.130;2023-04-15T00:57:43;12.81;75.97
70534;SHT31;58088;51.186;17.130;2023-04-15T01:00:10;12.80;75.99
70534;SHT31;58088;51.186;17.130;2023-04-15T01:02:39;12.79;76.00
70534;SHT31;58088;51.186;17.130;2023-04-15T01:05:05;12.79;75.98
70534;SHT31;58088;51.186;17.130;2023-04-15T01:07:32;12.81;75.91
70534;SHT31;58088;51.186;17.130;2023-04-15T01:09:58;12.82;75.89
70534;SHT31;58088;51.186;17.130;2023-04-15T01:12:25;12.82;75.82
70534;SHT31;58088;51.186;17.130;2023-04-15T01:14:53;12.81;75.87
70534;SHT31;58088;51.186;17.130;2023-04-15T01:17:21;12.79;75.82
70534;SHT31;58088;51.186;17.130;2023-04-15T01:19:49;12.78;75.81
70534;SHT31;58088;51.186;17.130;2023-04-15T01:22:16;12.81;75.81
70534;SHT31;58088;51.186;17.130;2023-04-15T01:24:48;12.81;75.77
70534;SHT31;58088;51.186;17.130;2023-04-15T01:27:26;12.82;75.77
70534;SHT31;58088;51.186;17.130;2023-04-15T01:29:53;12.81;75.71
70534;SHT31;58088;51.186;17.130;2023-04-15T01:32:19;12.83;75.70
70534;SHT31;58088;51.186;17.130;2023-04-15T01:34:45;12.83;75.70
70534;SHT31;58088;51.186;17.130;2023-04-15T01:37:11;12.84;75.66
70534;SHT31;58088;51.186;17.130;2023-04-15T01:39:38;12.85;75.66
70534;SHT31;58088;51.186;17.130;2023-04-15T01:42:04;12.83;75.68
70534;SHT31;58088;51.186;17.130;2023-04-15T01:44:30;12.83;75.62
70534;SHT31;58088;51.186;17.130;2023-04-15T01:46:56;12.82;75.61
70534;SHT31;58088;51.186;17.130;2023-04-15T01:49:23;12.82;75.60
70534;SHT31;58088;51.186;17.130;2023-04-15T01:51:49;12.83;75.59
70534;SHT31;58088;51.186;17.130;2023-04-15T01:54:15;12.79;75.56
70534;SHT31;58088;51.186;17.130;2023-04-15T01:56:41;12.77;75.60
70534;SHT31;58088;51.186;17.130;2023-04-15T01:59:12;12.75;75.66
70534;SHT31;58088;51.186;17.130;2023-04-15T02:01:49;12.75;75.70
70534;SHT31;58088;51.186;17.130;2023-04-15T02:04:33;12.74;75.67
70534;SHT31;58088;51.186;17.130;2023-04-15T02:06:59;12.73;75.61
70534;SHT31;58088;51.186;17.130;2023-04-15T02:09:26;12.70;75.60
70534;SHT31;58088;51.186;17.130;2023-04-15T02:11:52;12.69;75.67
70534;SHT31;58088;51.186;17.130;2023-04-15T02:14:19;12.69;75.68
70534;SHT31;58088;51.186;17.130;2023-04-15T02:16:45;12.68;75.68
70534;SHT31;58088;51.186;17.130;2023-04-15T02:19:14;12.69;75.63
70534;SHT31;58088;51.186;17.130;2023-04-15T02:21:40;12.70;75.66
70534;SHT31;58088;51.186;17.130;2023-04-15T02:24:07;12.70;75.70
70534;SHT31;58088;51.186;17.130;2023-04-15T02:26:33;12.69;75.73
70534;SHT31;58088;51.186;17.130;2023-04-15T02:28:59;12.71;75.67
70534;SHT31;58088;51.186;17.130;2023-04-15T02:31:25;12.71;75.64
70534;SHT31;58088;51.186;17.130;2023-04-15T02:33:52;12.71;75.60
70534;SHT31;58088;51.186;17.130;2023-04-15T02:36:18;12.69;75.59
70534;SHT31;58088;51.186;17.130;2023-04-15T02:38:45;12.68;75.60
70534;SHT31;58088;51.186;17.130;2023-04-15T02:41:12;12.69;75.56
70534;SHT31;58088;51.186;17.130;2023-04-15T02:43:38;12.70;75.53
70534;SHT31;58088;51.186;17.130;2023-04-15T02:46:05;12.69;75.51
70534;SHT31;58088;51.186;17.130;2023-04-15T02:48:32;12.69;75.50
70534;SHT31;58088;51.186;17.130;2023-04-15T02:51:11;12.66;75.50
70534;SHT31;58088;51.186;17.130;2023-04-15T02:53:42;12.64;75.54
70534;SHT31;58088;51.186;17.130;2023-04-15T02:56:09;12.64;75.50
70534;SHT31;58088;51.186;17.130;2023-04-15T02:58:36;12.62;75.46
70534;SHT31;58088;51.186;17.130;2023-04-15T03:01:02;12.62;75.50
70534;SHT31;58088;51.186;17.130;2023-04-15T03:03:29;12.61;75.50
70534;SHT31;58088;51.186;17.130;2023-04-15T03:05:56;12.60;75.40
70534;SHT31;58088;51.186;17.130;2023-04-15T03:08:22;12.60;75.40
70534;SHT31;58088;51.186;17.130;2023-04-15T03:10:49;12.57;75.33
70534;SHT31;58088;51.186;17.130;2023-04-15T03:13:18;12.53;75.35
70534;SHT31;58088;51.186;17.130;2023-04-15T03:15:46;12.49;75.39
70534;SHT31;58088;51.186;17.130;2023-04-15T03:18:13;12.47;75.40
70534;SHT31;58088;51.186;17.130;2023-04-15T03:20:39;12.46;75.35
70534;SHT31;58088;51.186;17.130;2023-04-15T03:23:06;12.43;75.30
70534;SHT31;58088;51.186;17.130;2023-04-15T03:25:32;12.40;75.26
70534;SHT31;58088;51.186;17.130;2023-04-15T03:27:59;12.36;75.21
70534;SHT31;58088;51.186;17.130;2023-04-15T03:30:25;12.32;75.18
70534;SHT31;58088;51.186;17.130;2023-04-15T03:32:52;12.29;75.04
70534;SHT31;58088;51.186;17.130;2023-04-15T03:35:18;12.23;74.78
70534;SHT31;58088;51.186;17.130;2023-04-15T03:37:45;12.19;74.70
70534;SHT31;58088;51.186;17.130;2023-04-15T03:40:13;12.18;74.68
70534;SHT31;58088;51.186;17.130;2023-04-15T03:42:40;12.15;74.47
70534;SHT31;58088;51.186;17.130;2023-04-15T03:45:06;12.11;74.29
70534;SHT31;58088;51.186;17.130;2023-04-15T03:47:33;12.05;74.08
70534;SHT31;58088;51.186;17.130;2023-04-15T03:50:00;11.98;73.78
70534;SHT31;58088;51.186;17.130;2023-04-15T03:52:26;11.91;73.50
70534;SHT31;58088;51.186;17.130;2023-04-15T03:54:53;11.85;73.29
70534;SHT31;58088;51.186;17.130;2023-04-15T03:57:19;11.86;73.21
70534;SHT31;58088;51.186;17.130;2023-04-15T03:59:45;11.84;73.01
70534;SHT31;58088;51.186;17.130;2023-04-15T04:02:12;11.81;72.98
70534;SHT31;58088;51.186;17.130;2023-04-15T04:04:38;11.78;72.79
70534;SHT31;58088;51.186;17.130;2023-04-15T04:07:04;11.75;72.61
70534;SHT31;58088;51.186;17.130;2023-04-15T04:09:31;11.74;72.55
70534;SHT31;58088;51.186;17.130;2023-04-15T04:11:57;11.72;72.50
70534;SHT31;58088;51.186;17.130;2023-04-15T04:14:24;11.71;72.44
70534;SHT31;58088;51.186;17.130;2023-04-15T04:16:54;11.66;72.15
70534;SHT31;58088;51.186;17.130;2023-04-15T04:19:22;11.61;71.99
70534;SHT31;58088;51.186;17.130;2023-04-15T04:21:48;11.58;71.96
70534;SHT31;58088;51.186;17.130;2023-04-15T04:24:14;11.56;71.81
70534;SHT31;58088;51.186;17.130;2023-04-15T04:26:40;11.52;71.73
70534;SHT31;58088;51.186;17.130;2023-04-15T04:29:06;11.46;71.45
70534;SHT31;58088;51.186;17.130;2023-04-15T04:31:33;11.39;71.23
70534;SHT31;58088;51.186;17.130;2023-04-15T04:33:59;11.37;71.08
70534;SHT31;58088;51.186;17.130;2023-04-15T04:36:25;11.34;70.85
70534;SHT31;58088;51.186;17.130;2023-04-15T04:38:51;11.28;70.60
70534;SHT31;58088;51.186;17.130;2023-04-15T04:41:17;11.25;70.48
70534;SHT31;58088;51.186;17.130;2023-04-15T04:43:44;11.21;70.30
70534;SHT31;58088;51.186;17.130;2023-04-15T04:46:10;11.21;70.19
70534;SHT31;58088;51.186;17.130;2023-04-15T04:48:37;11.18;70.11
70534;SHT31;58088;51.186;17.130;2023-04-15T04:51:04;11.14;69.96
70534;SHT31;58088;51.186;17.130;2023-04-15T04:53:30;11.12;69.81
70534;SHT31;58088;51.186;17.130;2023-04-15T04:55:56;11.09;69.82
70534;SHT31;58088;51.186;17.130;2023-04-15T04:58:23;11.03;69.76
70534;SHT31;58088;51.186;17.130;2023-04-15T05:00:50;11.00;69.68
70534;SHT31;58088;51.186;17.130;2023-04-15T05:03:16;10.97;69.43
70534;SHT31;58088;51.186;17.130;2023-04-15T05:05:42;10.94;69.44
70534;SHT31;58088;51.186;17.130;2023-04-15T05:08:09;10.93;69.40
70534;SHT31;58088;51.186;17.130;2023-04-15T05:10:36;10.93;69.35
70534;SHT31;58088;51.186;17.130;2023-04-15T05:13:07;10.92;69.18
70534;SHT31;58088;51.186;17.130;2023-04-15T05:15:33;10.92;69.20
70534;SHT31;58088;51.186;17.130;2023-04-15T05:18:02;10.91;69.20
70534;SHT31;58088;51.186;17.130;2023-04-15T05:20:33;10.89;69.15
70534;SHT31;58088;51.186;17.130;2023-04-15T05:22:59;10.90;69.20
70534;SHT31;58088;51.186;17.130;2023-04-15T05:25:26;10.92;69.29
70534;SHT31;58088;51.186;17.130;2023-04-15T05:27:52;10.93;69.20
70534;SHT31;58088;51.186;17.130;2023-04-15T05:30:18;10.91;69.16
70534;SHT31;58088;51.186;17.130;2023-04-15T05:32:46;10.91;69.15
70534;SHT31;58088;51.186;17.130;2023-04-15T05:35:13;10.91;69.18
70534;SHT31;58088;51.186;17.130;2023-04-15T05:37:40;10.93;69.20
70534;SHT31;58088;51.186;17.130;2023-04-15T05:40:07;10.98;69.24
70534;SHT31;58088;51.186;17.130;2023-04-15T05:42:35;10.98;69.12
70534;SHT31;58088;51.186;17.130;2023-04-15T05:45:02;11.04;69.23
70534;SHT31;58088;51.186;17.130;2023-04-15T05:47:36;11.15;69.46
70534;SHT31;58088;51.186;17.130;2023-04-15T05:50:03;11.25;69.28
70534;SHT31;58088;51.186;17.130;2023-04-15T05:52:30;11.34;69.00
70534;SHT31;58088;51.186;17.130;2023-04-15T05:54:56;11.45;68.90
70534;SHT31;58088;51.186;17.130;2023-04-15T05:57:23;11.60;68.67
70534;SHT31;58088;51.186;17.130;2023-04-15T05:59:49;11.70;68.48
70534;SHT31;58088;51.186;17.130;2023-04-15T06:02:20;11.81;68.21
70534;SHT31;58088;51.186;17.130;2023-04-15T06:04:46;11.91;68.02
70534;SHT31;58088;51.186;17.130;2023-04-15T06:07:13;12.02;67.83
70534;SHT31;58088;51.186;17.130;2023-04-15T06:09:40;12.19;67.58
70534;SHT31;58088;51.186;17.130;2023-04-15T06:12:06;12.30;67.22
70534;SHT31;58088;51.186;17.130;2023-04-15T06:14:37;12.54;66.72
70534;SHT31;58088;51.186;17.130;2023-04-15T06:17:05;12.91;66.39
70534;SHT31;58088;51.186;17.130;2023-04-15T06:19:32;13.11;65.58
70534;SHT31;58088;51.186;17.130;2023-04-15T06:21:59;13.10;65.10
70534;SHT31;58088;51.186;17.130;2023-04-15T06:24:26;13.19;65.20
70534;SHT31;58088;51.186;17.130;2023-04-15T06:26:53;13.36;65.45
70534;SHT31;58088;51.186;17.130;2023-04-15T06:29:20;13.49;65.02
70534;SHT31;58088;51.186;17.130;2023-04-15T06:31:49;13.72;64.76
70534;SHT31;58088;51.186;17.130;2023-04-15T06:34:16;13.92;64.54
70534;SHT31;58088;51.186;17.130;2023-04-15T06:36:42;13.92;63.96
70534;SHT31;58088;51.186;17.130;2023-04-15T06:39:08;13.90;63.62
70534;SHT31;58088;51.186;17.130;2023-04-15T06:41:35;13.86;63.31
70534;SHT31;58088;51.186;17.130;2023-04-15T06:44:01;13.89;63.29
70534;SHT31;58088;51.186;17.130;2023-04-15T06:46:31;13.87;63.24
70534;SHT31;58088;51.186;17.130;2023-04-15T06:48:59;13.85;63.30
70534;SHT31;58088;51.186;17.130;2023-04-15T06:51:25;13.82;63.25
70534;SHT31;58088;51.186;17.130;2023-04-15T06:53:51;13.80;63.43
70534;SHT31;58088;51.186;17.130;2023-04-15T06:56:18;13.81;63.44
70534;SHT31;58088;51.186;17.130;2023-04-15T06:58:44;13.85;63.79
70534;SHT31;58088;51.186;17.130;2023-04-15T07:01:10;13.89;63.64
70534;SHT31;58088;51.186;17.130;2023-04-15T07:03:37;13.90;63.45
70534;SHT31;58088;51.186;17.130;2023-04-15T07:06:03;13.85;63.09
70534;SHT31;58088;51.186;17.130;2023-04-15T07:08:32;13.84;63.23
70534;SHT31;58088;51.186;17.130;2023-04-15T07:10:59;13.75;63.22
70534;SHT31;58088;51.186;17.130;2023-04-15T07:13:27;13.65;63.31
70534;SHT31;58088;51.186;17.130;2023-04-15T07:15:57;13.59;63.25
70534;SHT31;58088;51.186;17.130;2023-04-15T07:18:23;13.56;63.27
70534;SHT31;58088;51.186;17.130;2023-04-15T07:20:50;13.53;63.33
70534;SHT31;58088;51.186;17.130;2023-04-15T07:23:16;13.51;63.29
70534;SHT31;58088;51.186;17.130;2023-04-15T07:25:43;13.51;63.14
70534;SHT31;58088;51.186;17.130;2023-04-15T07:28:09;13.51;63.03
70534;SHT31;58088;51.186;17.130;2023-04-15T07:30:38;13.49;62.76
70534;SHT31;58088;51.186;17.130;2023-04-15T07:33:08;13.48;62.69
70534;SHT31;58088;51.186;17.130;2023-04-15T07:35:35;13.43;62.72
70534;SHT31;58088;51.186;17.130;2023-04-15T07:38:02;13.32;62.36
70534;SHT31;58088;51.186;17.130;2023-04-15T07:40:28;13.28;62.63
70534;SHT31;58088;51.186;17.130;2023-04-15T07:42:55;13.27;62.51
70534;SHT31;58088;51.186;17.130;2023-04-15T07:45:23;13.28;62.72
70534;SHT31;58088;51.186;17.130;2023-04-15T07:47:49;13.34;62.81
70534;SHT31;58088;51.186;17.130;2023-04-15T07:50:16;13.38;62.80
70534;SHT31;58088;51.186;17.130;2023-04-15T07:52:43;13.42;62.36
70534;SHT31;58088;51.186;17.130;2023-04-15T07:55:09;13.48;62.28
70534;SHT31;58088;51.186;17.130;2023-04-15T07:57:36;13.55;62.08
70534;SHT31;58088;51.186;17.130;2023-04-15T08:00:03;13.58;61.84
70534;SHT31;58088;51.186;17.130;2023-04-15T08:02:41;13.70;61.55
70534;SHT31;58088;51.186;17.130;2023-04-15T08:05:08;13.79;61.02
70534;SHT31;58088;51.186;17.130;2023-04-15T08:07:36;13.89;60.74
70534;SHT31;58088;51.186;17.130;2023-04-15T08:10:03;13.93;60.56
70534;SHT31;58088;51.186;17.130;2023-04-15T08:12:30;13.98;60.12
70534;SHT31;58088;51.186;17.130;2023-04-15T08:14:56;14.03;59.83
70534;SHT31;58088;51.186;17.130;2023-04-15T08:17:23;14.07;59.80
70534;SHT31;58088;51.186;17.130;2023-04-15T08:19:50;14.12;58.80
70534;SHT31;58088;51.186;17.130;2023-04-15T08:22:17;14.18;58.38
70534;SHT31;58088;51.186;17.130;2023-04-15T08:24:43;14.28;58.22
70534;SHT31;58088;51.186;17.130;2023-04-15T08:27:09;14.41;58.21
70534;SHT31;58088;51.186;17.130;2023-04-15T08:29:35;14.62;58.08
70534;SHT31;58088;51.186;17.130;2023-04-15T08:32:02;14.85;58.13
70534;SHT31;58088;51.186;17.130;2023-04-15T08:34:28;14.97;57.57
70534;SHT31;58088;51.186;17.130;2023-04-15T08:36:55;15.11;57.25
70534;SHT31;58088;51.186;17.130;2023-04-15T08:39:22;15.29;56.57
70534;SHT31;58088;51.186;17.130;2023-04-15T08:41:55;15.44;55.83
70534;SHT31;58088;51.186;17.130;2023-04-15T08:44:32;15.57;55.00
70534;SHT31;58088;51.186;17.130;2023-04-15T08:47:01;15.70;55.29
70534;SHT31;58088;51.186;17.130;2023-04-15T08:49:32;15.86;54.75
70534;SHT31;58088;51.186;17.130;2023-04-15T08:52:04;15.96;53.95
70534;SHT31;58088;51.186;17.130;2023-04-15T08:54:36;16.00;53.83
70534;SHT31;58088;51.186;17.130;2023-04-15T08:57:05;16.07;53.38
70534;SHT31;58088;51.186;17.130;2023-04-15T08:59:33;16.19;53.52
70534;SHT31;58088;51.186;17.130;2023-04-15T09:02:02;16.02;52.90
70534;SHT31;58088;51.186;17.130;2023-04-15T09:04:31;15.88;53.39
70534;SHT31;58088;51.186;17.130;2023-04-15T09:06:59;15.96;53.63
70534;SHT31;58088;51.186;17.130;2023-04-15T09:09:27;16.09;53.97
70534;SHT31;58088;51.186;17.130;2023-04-15T09:11:55;16.24;53.46
70534;SHT31;58088;51.186;17.130;2023-04-15T09:14:23;16.33;53.38
70534;SHT31;58088;51.186;17.130;2023-04-15T09:17:00;16.45;52.91
70534;SHT31;58088;51.186;17.130;2023-04-15T09:19:30;16.58;52.16
70534;SHT31;58088;51.186;17.130;2023-04-15T09:22:01;16.63;51.08
70534;SHT31;58088;51.186;17.130;2023-04-15T09:24:38;16.73;51.74
70534;SHT31;58088;51.186;17.130;2023-04-15T09:27:08;16.96;51.35
70534;SHT31;58088;51.186;17.130;2023-04-15T09:29:36;17.15;51.26
70534;SHT31;58088;51.186;17.130;2023-04-15T09:32:12;17.26;50.36
70534;SHT31;58088;51.186;17.130;2023-04-15T09:34:40;17.20;49.90
70534;SHT31;58088;51.186;17.130;2023-04-15T09:37:08;17.37;50.79
70534;SHT31;58088;51.186;17.130;2023-04-15T09:39:45;17.48;49.18
70534;SHT31;58088;51.186;17.130;2023-04-15T09:42:17;17.42;48.68
70534;SHT31;58088;51.186;17.130;2023-04-15T09:44:49;17.52;48.48
70534;SHT31;58088;51.186;17.130;2023-04-15T09:47:25;17.53;47.85
70534;SHT31;58088;51.186;17.130;2023-04-15T09:49:57;17.42;47.81
70534;SHT31;58088;51.186;17.130;2023-04-15T09:52:24;17.43;47.59
70534;SHT31;58088;51.186;17.130;2023-04-15T09:54:52;17.55;48.09
70534;SHT31;58088;51.186;17.130;2023-04-15T09:57:21;17.63;48.11
70534;SHT31;58088;51.186;17.130;2023-04-15T09:59:48;17.62;48.11
70534;SHT31;58088;51.186;17.130;2023-04-15T10:02:15;17.60;47.12
70534;SHT31;58088;51.186;17.130;2023-04-15T10:04:45;17.52;46.66
70534;SHT31;58088;51.186;17.130;2023-04-15T10:07:14;17.44;46.85
70534;SHT31;58088;51.186;17.130;2023-04-15T10:09:45;17.31;47.40
70534;SHT31;58088;51.186;17.130;2023-04-15T10:12:12;17.40;47.56
70534;SHT31;58088;51.186;17.130;2023-04-15T10:14:47;17.39;47.14
70534;SHT31;58088;51.186;17.130;2023-04-15T10:17:31;17.25;46.26
70534;SHT31;58088;51.186;17.130;2023-04-15T10:20:03;17.25;47.07
70534;SHT31;58088;51.186;17.130;2023-04-15T10:22:31;17.38;46.96
70534;SHT31;58088;51.186;17.130;2023-04-15T10:24:58;17.54;47.64
70534;SHT31;58088;51.186;17.130;2023-04-15T10:27:25;17.70;47.91
70534;SHT31;58088;51.186;17.130;2023-04-15T10:29:52;17.75;48.41
70534;SHT31;58088;51.186;17.130;2023-04-15T10:32:19;17.74;47.37
70534;SHT31;58088;51.186;17.130;2023-04-15T10:34:47;17.57;45.37
70534;SHT31;58088;51.186;17.130;2023-04-15T10:37:32;17.41;45.54
70534;SHT31;58088;51.186;17.130;2023-04-15T10:40:00;17.39;46.88
70534;SHT31;58088;51.186;17.130;2023-04-15T10:43:01;17.27;47.18
70534;SHT31;58088;51.186;17.130;2023-04-15T10:45:32;17.29;48.68
70534;SHT31;58088;51.186;17.130;2023-04-15T10:48:05;17.47;48.78
70534;SHT31;58088;51.186;17.130;2023-04-15T10:50:33;17.57;48.19
70534;SHT31;58088;51.186;17.130;2023-04-15T10:53:02;17.55;48.34
70534;SHT31;58088;51.186;17.130;2023-04-15T10:55:32;17.47;48.48
70534;SHT31;58088;51.186;17.130;2023-04-15T10:57:59;17.45;48.04
70534;SHT31;58088;51.186;17.130;2023-04-15T11:00:28;17.44;48.38
70534;SHT31;58088;51.186;17.130;2023-04-15T11:03:04;17.43;47.42
70534;SHT31;58088;51.186;17.130;2023-04-15T11:08:04;17.50;47.81
70534;SHT31;58088;51.186;17.130;2023-04-15T11:12:57;17.57;47.36
70534;SHT31;58088;51.186;17.130;2023-04-15T11:15:44;17.63;46.91
70534;SHT31;58088;51.186;17.130;2023-04-15T11:18:19;17.76;47.12
70534;SHT31;58088;51.186;17.130;2023-04-15T11:20:53;17.89;47.12
70534;SHT31;58088;51.186;17.130;2023-04-15T11:23:28;17.96;46.14
70534;SHT31;58088;51.186;17.130;2023-04-15T11:25:56;18.04;45.99
70534;SHT31;58088;51.186;17.130;2023-04-15T11:28:28;18.07;45.44
70534;SHT31;58088;51.186;17.130;2023-04-15T11:30:56;18.04;44.88
70534;SHT31;58088;51.186;17.130;2023-04-15T11:33:24;17.99;45.20
70534;SHT31;58088;51.186;17.130;2023-04-15T11:35:52;17.85;44.04
70534;SHT31;58088;51.186;17.130;2023-04-15T11:38:19;17.66;43.85
70534;SHT31;58088;51.186;17.130;2023-04-15T11:40:47;17.60;44.30
70534;SHT31;58088;51.186;17.130;2023-04-15T11:43:19;17.67;45.24
70534;SHT31;58088;51.186;17.130;2023-04-15T11:45:48;17.67;45.54
70534;SHT31;58088;51.186;17.130;2023-04-15T11:48:18;17.65;44.87
70534;SHT31;58088;51.186;17.130;2023-04-15T11:51:07;17.59;43.75
70534;SHT31;58088;51.186;17.130;2023-04-15T11:56:21;17.56;43.90
70534;SHT31;58088;51.186;17.130;2023-04-15T11:58:51;17.60;45.45
70534;SHT31;58088;51.186;17.130;2023-04-15T12:01:36;17.56;45.39
70534;SHT31;58088;51.186;17.130;2023-04-15T12:04:13;17.39;45.04
70534;SHT31;58088;51.186;17.130;2023-04-15T12:06:43;17.29;44.67
70534;SHT31;58088;51.186;17.130;2023-04-15T12:09:14;17.24;44.58
70534;SHT31;58088;51.186;17.130;2023-04-15T12:11:42;17.25;44.63
70534;SHT31;58088;51.186;17.130;2023-04-15T12:14:26;17.30;44.91
70534;SHT31;58088;51.186;17.130;2023-04-15T12:16:56;17.26;44.30
70534;SHT31;58088;51.186;17.130;2023-04-15T12:19:37;17.11;44.40
70534;SHT31;58088;51.186;17.130;2023-04-15T12:22:10;16.94;45.56
70534;SHT31;58088;51.186;17.130;2023-04-15T12:24:39;16.88;45.80
70534;SHT31;58088;51.186;17.130;2023-04-15T12:27:13;16.85;45.62
70534;SHT31;58088;51.186;17.130;2023-04-15T12:29:41;16.91;46.31
70534;SHT31;58088;51.186;17.130;2023-04-15T12:32:09;17.02;46.22
70534;SHT31;58088;51.186;17.130;2023-04-15T12:34:38;17.10;45.09
70534;SHT31;58088;51.186;17.130;2023-04-15T12:37:10;17.16;45.80
70534;SHT31;58088;51.186;17.130;2023-04-15T12:39:39;17.18;45.99
70534;SHT31;58088;51.186;17.130;2023-04-15T12:42:08;17.27;46.28
70534;SHT31;58088;51.186;17.130;2023-04-15T12:44:35;17.32;45.35
70534;SHT31;58088;51.186;17.130;2023-04-15T12:47:04;17.36;45.21
70534;SHT31;58088;51.186;17.130;2023-04-15T12:49:32;17.40;46.03
70534;SHT31;58088;51.186;17.130;2023-04-15T12:51:58;17.47;45.37
70534;SHT31;58088;51.186;17.130;2023-04-15T12:54:30;17.54;45.64
70534;SHT31;58088;51.186;17.130;2023-04-15T12:56:57;17.61;44.82
70534;SHT31;58088;51.186;17.130;2023-04-15T12:59:24;17.60;44.62
70534;SHT31;58088;51.186;17.130;2023-04-15T13:01:51;17.64;45.57
70534;SHT31;58088;51.186;17.130;2023-04-15T13:04:18;17.67;45.33
70534;SHT31;58088;51.186;17.130;2023-04-15T13:06:45;17.62;45.14
70534;SHT31;58088;51.186;17.130;2023-04-15T13:09:11;17.60;45.28
70534;SHT31;58088;51.186;17.130;2023-04-15T13:11:38;17.67;45.50
70534;SHT31;58088;51.186;17.130;2023-04-15T13:14:06;17.71;45.42
70534;SHT31;58088;51.186;17.130;2023-04-15T13:16:35;17.70;45.81
70534;SHT31;58088;51.186;17.130;2023-04-15T13:19:02;17.72;45.61
70534;SHT31;58088;51.186;17.130;2023-04-15T13:21:29;17.67;44.33
70534;SHT31;58088;51.186;17.130;2023-04-15T13:23:59;17.61;44.55
70534;SHT31;58088;51.186;17.130;2023-04-15T13:26:26;17.62;44.57
70534;SHT31;58088;51.186;17.130;2023-04-15T13:28:52;17.65;44.47
70534;SHT31;58088;51.186;17.130;2023-04-15T13:31:19;17.74;45.14
70534;SHT31;58088;51.186;17.130;2023-04-15T13:33:45;17.84;45.40
70534;SHT31;58088;51.186;17.130;2023-04-15T13:36:11;17.90;45.71
70534;SHT31;58088;51.186;17.130;2023-04-15T13:38:37;17.97;44.98
70534;SHT31;58088;51.186;17.130;2023-04-15T13:41:03;18.02;44.91
70534;SHT31;58088;51.186;17.130;2023-04-15T13:43:30;18.07;44.79
70534;SHT31;58088;51.186;17.130;2023-04-15T13:45:58;18.09;44.76
70534;SHT31;58088;51.186;17.130;2023-04-15T13:48:24;18.13;45.14
70534;SHT31;58088;51.186;17.130;2023-04-15T13:50:51;18.16;45.09
70534;SHT31;58088;51.186;17.130;2023-04-15T13:53:17;18.13;44.99
70534;SHT31;58088;51.186;17.130;2023-04-15T13:55:43;18.07;44.77
70534;SHT31;58088;51.186;17.130;2023-04-15T13:58:12;18.07;45.46
70534;SHT31;58088;51.186;17.130;2023-04-15T14:00:38;18.07;45.08
70534;SHT31;58088;51.186;17.130;2023-04-15T14:03:05;17.97;44.72
70534;SHT31;58088;51.186;17.130;2023-04-15T14:05:31;17.90;44.15
70534;SHT31;58088;51.186;17.130;2023-04-15T14:07:58;17.81;44.10
70534;SHT31;58088;51.186;17.130;2023-04-15T14:10:25;17.66;43.89
70534;SHT31;58088;51.186;17.130;2023-04-15T14:12:51;17.61;44.45
70534;SHT31;58088;51.186;17.130;2023-04-15T14:15:17;17.60;44.65
70534;SHT31;58088;51.186;17.130;2023-04-15T14:17:44;17.54;44.90
70534;SHT31;58088;51.186;17.130;2023-04-15T14:20:10;17.46;44.40
70534;SHT31;58088;51.186;17.130;2023-04-15T14:22:37;17.44;44.94
70534;SHT31;58088;51.186;17.130;2023-04-15T14:25:03;17.40;44.93
70534;SHT31;58088;51.186;17.130;2023-04-15T14:27:31;17.31;45.30
70534;SHT31;58088;51.186;17.130;2023-04-15T14:29:57;17.18;44.96
70534;SHT31;58088;51.186;17.130;2023-04-15T14:32:24;17.07;45.43
70534;SHT31;58088;51.186;17.130;2023-04-15T14:34:51;16.97;44.94
70534;SHT31;58088;51.186;17.130;2023-04-15T14:37:22;16.91;45.45
70534;SHT31;58088;51.186;17.130;2023-04-15T14:39:49;16.88;45.70
70534;SHT31;58088;51.186;17.130;2023-04-15T14:42:15;16.84;45.69
70534;SHT31;58088;51.186;17.130;2023-04-15T14:44:41;16.83;45.68
70534;SHT31;58088;51.186;17.130;2023-04-15T14:47:09;16.74;45.44
70534;SHT31;58088;51.186;17.130;2023-04-15T14:49:35;16.66;45.39
70534;SHT31;58088;51.186;17.130;2023-04-15T14:52:02;16.63;45.83
70534;SHT31;58088;51.186;17.130;2023-04-15T14:54:28;16.59;46.09
70534;SHT31;58088;51.186;17.130;2023-04-15T14:56:54;16.57;46.09
70534;SHT31;58088;51.186;17.130;2023-04-15T14:59:21;16.52;46.05
70534;SHT31;58088;51.186;17.130;2023-04-15T15:01:47;16.49;45.92
70534;SHT31;58088;51.186;17.130;2023-04-15T15:04:13;16.48;46.44
70534;SHT31;58088;51.186;17.130;2023-04-15T15:06:40;16.45;46.31
70534;SHT31;58088;51.186;17.130;2023-04-15T15:09:06;16.44;46.40
70534;SHT31;58088;51.186;17.130;2023-04-15T15:11:33;16.39;46.38
70534;SHT31;58088;51.186;17.130;2023-04-15T15:13:59;16.34;46.14
70534;SHT31;58088;51.186;17.130;2023-04-15T15:16:26;16.33;46.27
70534;SHT31;58088;51.186;17.130;2023-04-15T15:18:53;16.31;47.23
70534;SHT31;58088;51.186;17.130;2023-04-15T15:21:20;16.35;47.51
70534;SHT31;58088;51.186;17.130;2023-04-15T15:23:48;16.37;47.09
70534;SHT31;58088;51.186;17.130;2023-04-15T15:26:14;16.40;47.24
70534;SHT31;58088;51.186;17.130;2023-04-15T15:28:40;16.41;46.74